Time;durP1;ratioP1;P1;durP2;ratioP2;P2;SDS_P1;SDS_P2;PMS_P1;PMS_P2;Temp;Humidity;BMP_temperature;BMP_pressure;BME280_temperature;BME280_humidity;BME280_pressure;Samples;Min_cycle;Max_cycle;Signal;HPM_P1;HPM_P2
2023/02/16 00:02:23;;;;;;;;;54.25;33.75;;;;;6.84;100.00;102363.94;5037860;28;45287;-77
2023/02/16 00:04:48;;;;;;;;;41.50;30.25;;;;;6.83;100.00;102351.84;5037140;28;52622;-76
2023/02/16 00:07:13;;;;;;;;;44.50;35.00;;;;;6.82;100.00;102355.28;5037442;28;45262;-77
2023/02/16 00:09:38;;;;;;;;;46.00;36.50;;;;;6.81;100.00;102359.56;5036587;28;68611;-77
2023/02/16 00:14:59;;;;;;;;;37.00;32.50;;;;;6.81;100.00;102356.13;5022224;28;45285;-77
2023/02/16 00:17:24;;;;;;;;;42.50;34.25;;;;;6.82;100.00;102353.56;5018037;28;71213;-76
2023/02/16 00:19:50;;;;;;;;;35.00;27.25;;;;;6.79;100.00;102343.16;5036683;28;57067;-76
2023/02/16 00:22:15;;;;;;;;;44.00;32.75;;;;;6.79;100.00;102346.59;5036651;28;66610;-77
2023/02/16 00:24:40;;;;;;;;;32.25;27.50;;;;;6.81;100.00;102348.38;5037012;28;45321;-77
2023/02/16 00:27:12;;;;;;;;;40.00;28.25;;;;;6.80;100.00;102344.91;5036081;28;67909;-77
2023/02/16 00:29:38;;;;;;;;;32.50;27.75;;;;;6.79;100.00;102344.03;5037189;28;45245;-77
2023/02/16 00:32:04;;;;;;;;;31.00;26.25;;;;;6.78;100.00;102349.22;5037480;28;45213;-76
2023/02/16 00:34:31;;;;;;;;;33.75;25.50;;;;;6.82;100.00;102350.13;5018962;28;45641;-76
2023/02/16 00:36:58;;;;;;;;;31.00;23.50;;;;;6.81;100.00;102353.53;5036792;28;45921;-76
2023/02/16 00:39:24;;;;;;;;;41.25;29.25;;;;;6.75;100.00;102352.59;5019264;28;45357;-77
2023/02/16 00:41:52;;;;;;;;;28.00;22.50;;;;;6.74;100.00;102342.22;5036935;28;45405;-76
2023/02/16 00:44:39;;;;;;;;;49.50;35.25;;;;;6.72;100.00;102336.16;5018649;28;46473;-77
2023/02/16 00:47:37;;;;;;;;;35.75;30.25;;;;;6.68;100.00;102335.25;5018789;28;45822;-77
2023/02/16 00:50:25;;;;;;;;;38.75;31.00;;;;;6.65;100.00;102342.09;5012320;28;45601;-77
2023/02/16 00:52:50;;;;;;;;;47.50;33.50;;;;;6.59;100.00;102332.56;5018748;28;45319;-77
2023/02/16 00:55:21;;;;;;;;;35.00;25.75;;;;;6.59;100.00;102332.56;5035894;28;66336;-76
2023/02/16 00:57:51;;;;;;;;;46.50;30.50;;;;;6.56;100.00;102324.78;5036621;28;45347;-77
2023/02/16 01:00:23;;;;;;;;;51.25;33.50;;;;;6.52;100.00;102315.19;5018798;28;45415;-76
2023/02/16 01:02:50;;;;;;;;;44.25;34.00;;;;;6.51;100.00;102326.41;4998501;28;45421;-77
2023/02/16 01:05:15;;;;;;;;;38.25;30.25;;;;;6.50;100.00;102322.97;4998603;28;47197;-77
2023/02/16 01:13:10;;;;;;;;;42.00;28.50;;;;;6.53;100.00;102332.47;5001348;28;45380;-77
2023/02/16 01:15:35;;;;;;;;;50.50;34.00;;;;;6.56;100.00;102323.03;5014952;28;68131;-77
2023/02/16 01:18:01;;;;;;;;;35.00;27.25;;;;;6.56;100.00;102317.00;5015088;28;45464;-76
2023/02/16 01:20:26;;;;;;;;;51.75;35.75;;;;;6.67;100.00;102324.91;5015707;28;64266;-76
2023/02/16 01:22:52;;;;;;;;;47.50;36.25;;;;;6.74;100.00;102316.34;5016645;28;45281;-77
2023/02/16 01:25:17;;;;;;;;;48.00;33.50;;;;;6.77;100.00;102322.44;5021566;28;75820;-78
2023/02/16 01:27:43;;;;;;;;;50.75;38.75;;;;;6.81;100.00;102312.97;5019809;28;53026;-77
2023/02/16 01:30:15;;;;;;;;;50.00;38.00;;;;;6.86;100.00;102307.88;4998751;28;45347;-77
2023/02/16 01:32:40;;;;;;;;;43.00;38.00;;;;;6.91;100.00;102308.78;5016452;28;45304;-77
2023/02/16 01:35:06;;;;;;;;;55.00;38.25;;;;;6.89;100.00;102300.13;4998383;28;45401;-77
2023/02/16 01:37:32;;;;;;;;;51.50;37.50;;;;;6.93;100.00;102304.50;5015064;28;45257;-77
2023/02/16 01:39:57;;;;;;;;;44.50;34.25;;;;;6.92;100.00;102301.03;5016277;28;45294;-77
2023/02/16 01:42:26;;;;;;;;;59.25;41.50;;;;;6.94;100.00;102304.50;5016391;28;45575;-77
2023/02/16 01:44:57;;;;;;;;;51.50;41.25;;;;;6.95;100.00;102301.09;4997885;28;46249;-77
2023/02/16 01:47:31;;;;;;;;;64.25;39.50;;;;;6.96;100.00;102300.25;4998235;28;45435;-76
2023/02/16 01:49:57;;;;;;;;;51.00;38.00;;;;;6.96;100.00;102295.06;5007981;28;45343;-77
2023/02/16 01:52:33;;;;;;;;;55.50;39.50;;;;;6.98;100.00;102298.53;5035339;28;60190;-76
2023/02/16 01:55:04;;;;;;;;;53.25;41.25;;;;;6.94;100.00;102296.75;5017881;28;47266;-77
2023/02/16 01:57:36;;;;;;;;;53.50;41.25;;;;;6.90;100.00;102294.97;5016917;28;45387;-77
2023/02/16 02:00:46;;;;;;;;;47.50;38.75;;;;;6.82;100.00;102290.59;5035610;28;45470;-77
2023/02/16 02:05:58;;;;;;;;;54.00;37.00;;;;;6.72;100.00;102280.13;4941121;28;45398;-77
2023/02/16 02:08:42;;;;;;;;;40.25;32.25;;;;;6.73;100.00;102278.41;4953761;28;73029;-77
2023/02/16 02:11:22;;;;;;;;;48.25;37.00;;;;;6.67;100.00;102274.00;4954940;28;45514;-77
2023/02/16 02:14:06;;;;;;;;;54.50;41.25;;;;;6.67;100.00;102273.16;4954622;28;45465;-77
2023/02/16 02:16:31;;;;;;;;;60.75;42.00;;;;;6.63;100.00;102264.50;4938418;28;48269;-77
2023/02/16 02:18:57;;;;;;;;;50.25;37.50;;;;;6.61;100.00;102266.16;4953810;28;71090;-77
2023/02/16 02:24:28;;;;;;;;;46.25;36.50;;;;;6.48;100.00;102257.41;4954813;28;45359;-77
2023/02/16 02:27:21;;;;;;;;;39.75;30.00;;;;;6.46;100.00;102258.22;4954374;28;45726;-77
2023/02/16 02:30:11;;;;;;;;;56.25;40.25;;;;;6.44;100.00;102255.59;4938051;28;45470;-77
2023/02/16 02:33:07;;;;;;;;;48.50;39.00;;;;;6.41;100.00;102265.94;4954860;28;45445;-77
2023/02/16 02:35:57;;;;;;;;;58.00;42.25;;;;;6.38;100.00;102273.66;4938280;28;45477;-77
2023/02/16 02:38:41;;;;;;;;;47.75;32.75;;;;;6.35;100.00;102274.50;4954199;28;45527;-76
2023/02/16 02:42:02;;;;;;;;;39.75;36.50;;;;;6.27;100.00;102255.41;5015196;28;45355;-77
2023/02/16 02:44:20;;;;;;;;;53.75;40.00;;;;;6.24;100.00;102260.56;5014754;28;45331;-77
2023/02/16 02:46:45;;;;;;;;;53.50;35.50;;;;;6.20;100.00;102258.75;4997432;28;45369;-77
2023/02/16 02:49:11;;;;;;;;;60.75;39.00;;;;;6.18;100.00;102265.63;4999975;28;69647;-77
2023/02/16 02:51:39;;;;;;;;;42.75;37.50;;;;;6.16;100.00;102264.72;5033995;28;70061;-77
2023/02/16 03:02:24;;;;;;;;;57.75;44.75;;;;;6.16;100.00;102244.91;5019942;28;45390;-77
2023/02/16 03:04:51;;;;;;;;;65.50;45.50;;;;;6.21;100.00;102242.41;5016184;28;66071;-77
2023/02/16 03:07:18;;;;;;;;;56.00;42.25;;;;;6.26;100.00;102245.91;5017521;28;45404;-77
2023/02/16 03:09:43;;;;;;;;;45.50;37.75;;;;;6.30;100.00;102247.69;5020658;28;45364;-77
2023/02/16 03:14:56;;;;;;;;;49.50;41.25;;;;;6.37;100.00;102241.75;5050046;28;45445;-77
2023/02/16 03:31:15;;;;;;;;;60.75;36.50;;;;;6.49;100.00;102232.41;5022903;28;45800;-76
2023/02/16 03:33:40;;;;;;;;;35.50;27.00;;;;;6.49;100.00;102229.81;5020135;28;45917;-77
2023/02/16 03:36:06;;;;;;;;;38.75;32.00;;;;;6.50;100.00;102237.59;5037140;28;66941;-77
2023/02/16 03:38:32;;;;;;;;;39.75;31.25;;;;;6.53;100.00;102235.03;5038130;28;45437;-77
2023/02/16 03:40:57;;;;;;;;;37.00;29.50;;;;;6.53;100.00;102240.19;5019113;28;59811;-77
2023/02/16 03:43:27;;;;;;;;;35.50;28.50;;;;;6.51;100.00;102241.03;5037005;28;69200;-77
2023/02/16 03:45:53;;;;;;;;;41.50;33.50;;;;;6.52;100.00;102250.53;5020044;28;45495;-77
2023/02/16 03:48:19;;;;;;;;;29.00;28.50;;;;;6.51;100.00;102256.56;5038057;28;45369;-77
2023/02/16 03:50:44;;;;;;;;;44.50;33.50;;;;;6.47;100.00;102249.63;5037363;28;45571;-76
2023/02/16 03:53:10;;;;;;;;;36.00;30.00;;;;;6.48;100.00;102246.16;5036404;28;71057;-77
2023/02/16 03:55:40;;;;;;;;;43.75;33.25;;;;;6.41;100.00;102242.66;5037491;28;45382;-77
2023/02/16 03:58:06;;;;;;;;;55.25;35.25;;;;;6.38;100.00;102242.63;5019836;28;45444;-77
2023/02/16 04:00:33;;;;;;;;;47.75;33.25;;;;;6.36;100.00;102247.75;5037175;28;45689;-76
2023/02/16 04:02:58;;;;;;;;;46.50;36.00;;;;;6.35;100.00;102248.63;5019635;28;45479;-77
2023/02/16 04:05:23;;;;;;;;;48.00;39.75;;;;;6.28;100.00;102243.31;5037439;28;45506;-77
2023/02/16 04:07:49;;;;;;;;;47.25;37.00;;;;;6.27;100.00;102246.78;5037553;28;45514;-77
2023/02/16 04:10:15;;;;;;;;;59.00;41.75;;;;;6.26;100.00;102255.38;5036059;28;73224;-77
2023/02/16 04:12:40;;;;;;;;;41.25;27.00;;;;;6.22;100.00;102246.69;5037478;28;45356;-77
2023/02/16 04:15:12;;;;;;;;;48.25;35.50;;;;;6.19;100.00;102249.28;5036930;28;57002;-77
2023/02/16 04:17:37;;;;;;;;;45.50;35.25;;;;;6.16;100.00;102237.16;5037313;28;45344;-77
2023/02/16 04:20:04;;;;;;;;;49.50;42.25;;;;;6.14;100.00;102230.22;5035806;28;66596;-77
2023/02/16 04:22:29;;;;;;;;;40.50;28.75;;;;;6.10;100.00;102237.06;5037079;28;45819;-77
2023/02/16 04:24:54;;;;;;;;;40.00;33.75;;;;;6.07;100.00;102241.34;5036304;28;66195;-77
2023/02/16 04:27:20;;;;;;;;;38.50;24.50;;;;;6.05;100.00;102245.63;5037142;28;45371;-77
2023/02/16 04:29:45;;;;;;;;;40.25;32.75;;;;;5.99;100.00;102231.75;5019495;28;45418;-76
2023/02/16 04:32:11;;;;;;;;;36.00;30.75;;;;;6.02;100.00;102238.69;5036238;28;68898;-77
2023/02/16 04:34:36;;;;;;;;;42.50;26.75;;;;;6.01;100.00;102234.38;5037284;28;45349;-77
2023/02/16 04:37:01;;;;;;;;;43.50;30.25;;;;;5.98;100.00;102235.19;5036551;28;54395;-77
2023/02/16 04:39:27;;;;;;;;;33.25;28.00;;;;;5.99;100.00;102239.50;5036474;28;48401;-77
2023/02/16 04:41:52;;;;;;;;;34.25;23.50;;;;;5.98;100.00;102239.47;5036773;28;45390;-76
2023/02/16 04:44:17;;;;;;;;;27.25;23.00;;;;;5.96;100.00;102241.19;5036318;28;63751;-77
2023/02/16 04:46:43;;;;;;;;;42.25;27.25;;;;;5.94;100.00;102237.66;5036347;28;63280;-76
2023/02/16 04:49:08;;;;;;;;;30.00;27.75;;;;;5.95;100.00;102229.97;5036432;28;57079;-77
2023/02/16 04:51:33;;;;;;;;;33.00;25.50;;;;;5.96;100.00;102234.31;5036994;28;45232;-77
2023/02/16 04:53:59;;;;;;;;;36.25;27.50;;;;;5.96;100.00;102241.19;5035360;28;64796;-77
2023/02/16 04:56:24;;;;;;;;;33.00;25.25;;;;;5.99;100.00;102246.41;5036451;28;51839;-77
2023/02/16 04:58:49;;;;;;;;;32.00;25.00;;;;;6.01;100.00;102250.72;5035878;28;69055;-77
2023/02/16 05:01:26;;;;;;;;;33.00;27.75;;;;;6.06;100.00;102255.97;5040470;28;70283;-77
2023/02/16 05:03:51;;;;;;;;;29.00;25.25;;;;;6.09;100.00;102260.31;5027787;28;45498;-77
2023/02/16 05:06:16;;;;;;;;;37.00;28.00;;;;;6.10;100.00;102251.72;5036002;28;63032;-77
2023/02/16 05:08:42;;;;;;;;;31.50;24.50;;;;;6.20;100.00;102245.81;5035890;28;53647;-77
2023/02/16 05:16:35;;;;;;;;;24.75;20.75;;;;;6.40;100.00;102253.84;5021469;28;45252;-77
2023/02/16 05:19:00;;;;;;;;;30.25;22.75;;;;;6.40;100.00;102243.50;5035466;28;72042;-78
2023/02/16 05:21:32;;;;;;;;;28.00;19.75;;;;;6.48;100.00;102246.16;5036553;28;45170;-77
2023/02/16 05:23:59;;;;;;;;;31.50;23.50;;;;;6.48;100.00;102259.09;5036072;28;45410;-77
2023/02/16 05:26:24;;;;;;;;;31.50;25.50;;;;;6.48;100.00;102246.16;5036757;28;45414;-77
2023/02/16 05:28:49;;;;;;;;;25.75;21.25;;;;;6.47;100.00;102237.56;5035548;28;73878;-77
2023/02/16 05:31:15;;;;;;;;;23.00;18.50;;;;;6.42;100.00;102233.19;5017823;28;70180;-77
2023/02/16 05:33:40;;;;;;;;;32.50;25.00;;;;;6.46;100.00;102240.97;5035491;28;65459;-77
2023/02/16 05:36:06;;;;;;;;;35.25;25.75;;;;;6.49;100.00;102238.44;5035198;28;69815;-77
2023/02/16 05:38:31;;;;;;;;;32.75;23.00;;;;;6.51;100.00;102239.31;5035707;28;46914;-77
2023/02/16 05:40:58;;;;;;;;;30.25;22.25;;;;;6.52;100.00;102238.47;5035304;28;66893;-77
2023/02/16 05:43:23;;;;;;;;;41.50;23.50;;;;;6.51;100.00;102230.69;5036160;28;45564;-77
2023/02/16 05:45:48;;;;;;;;;32.50;26.50;;;;;6.52;100.00;102235.91;5017278;28;69708;-76
2023/02/16 05:48:14;;;;;;;;;31.00;25.25;;;;;6.56;100.00;102237.66;5035041;28;71362;-77
2023/02/16 05:50:39;;;;;;;;;30.50;24.25;;;;;6.56;100.00;102229.03;5034968;28;67460;-78
2023/02/16 05:53:04;;;;;;;;;38.50;28.00;;;;;6.59;100.00;102234.22;5034649;28;65391;-78
2023/02/16 05:55:30;;;;;;;;;35.00;25.75;;;;;6.63;100.00;102237.72;5035016;28;66190;-77
2023/02/16 05:57:55;;;;;;;;;34.25;24.50;;;;;6.66;100.00;102235.19;5034817;28;72398;-78
2023/02/16 06:00:20;;;;;;;;;43.25;29.00;;;;;6.71;100.00;102234.38;5034843;28;68477;-77
2023/02/16 06:02:46;;;;;;;;;32.00;25.50;;;;;6.76;100.00;102232.72;5035101;28;58474;-78
2023/02/16 06:05:11;;;;;;;;;32.50;27.50;;;;;6.83;100.00;102236.22;5035547;28;45360;-78
2023/02/16 06:07:36;;;;;;;;;30.50;24.00;;;;;6.88;100.00;102233.69;5034460;28;68289;-77
2023/02/16 06:10:03;;;;;;;;;29.00;21.25;;;;;6.94;100.00;102247.56;5034815;28;69311;-78
2023/02/16 06:12:30;;;;;;;;;33.00;27.50;;;;;7.03;100.00;102243.34;5035789;28;45371;-77
2023/02/16 06:14:56;;;;;;;;;26.25;23.25;;;;;7.08;100.00;102234.75;5035662;28;45409;-77
2023/02/16 06:17:21;;;;;;;;;38.25;26.75;;;;;7.13;100.00;102240.84;5017515;28;46282;-78
2023/02/16 06:19:46;;;;;;;;;30.75;25.50;;;;;7.17;100.00;102239.16;5034951;28;62289;-78
2023/02/16 06:22:12;;;;;;;;;26.50;22.50;;;;;7.18;100.00;102233.97;5034503;28;66194;-82
2023/02/16 06:24:37;;;;;;;;;28.00;26.75;;;;;7.20;100.00;102226.22;5034716;28;65861;-83
2023/02/16 06:27:02;;;;;;;;;30.75;22.25;;;;;7.30;100.00;102233.22;5017522;28;46198;-81
2023/02/16 06:29:28;;;;;;;;;32.75;22.25;;;;;7.38;100.00;102253.16;5017478;28;45423;-81
2023/02/16 06:31:53;;;;;;;;;39.50;28.75;;;;;7.40;100.00;102254.03;5035543;28;45554;-79
2023/02/16 06:34:19;;;;;;;;;44.50;27.75;;;;;7.44;100.00;102258.38;5035414;28;45289;-80
2023/02/16 06:36:44;;;;;;;;;34.25;26.75;;;;;7.46;100.00;102265.31;5034603;28;45371;-80
2023/02/16 06:39:09;;;;;;;;;29.25;21.50;;;;;7.49;100.00;102261.88;5034411;28;66292;-80
2023/02/16 06:41:38;;;;;;;;;34.25;26.50;;;;;7.49;100.00;102269.66;5035333;28;45513;-77
2023/02/16 06:44:06;;;;;;;;;30.50;25.75;;;;;7.47;100.00;102271.38;5038486;28;45170;-80
2023/02/16 06:46:31;;;;;;;;;22.75;20.00;;;;;7.51;100.00;102279.16;5020547;28;46898;-79
2023/02/16 06:48:57;;;;;;;;;38.00;26.50;;;;;7.53;100.00;102286.97;5038099;28;50240;-80
2023/02/16 06:51:22;;;;;;;;;26.50;23.00;;;;;7.47;100.00;102277.41;5031660;28;45757;-80
2023/02/16 06:53:48;;;;;;;;;42.75;26.25;;;;;7.49;100.00;102291.25;5047544;28;60603;-79
2023/02/16 06:56:13;;;;;;;;;26.75;23.00;;;;;7.47;100.00;102281.75;5038770;28;46540;-82
2023/02/16 06:58:39;;;;;;;;;38.75;29.00;;;;;7.54;100.00;102299.03;5039144;28;45398;-79
2023/02/16 07:01:04;;;;;;;;;45.50;29.25;;;;;7.63;100.00;102300.84;5038319;28;63470;-81
2023/02/16 07:03:29;;;;;;;;;29.00;27.25;;;;;7.64;100.00;102295.69;5038091;28;60013;-80
2023/02/16 07:05:54;;;;;;;;;31.00;23.50;;;;;7.67;100.00;102300.91;5038634;28;48955;-80
2023/02/16 07:08:20;;;;;;;;;36.50;25.25;;;;;7.66;100.00;102291.38;5037837;28;65975;-80
2023/02/16 07:10:45;;;;;;;;;40.00;31.00;;;;;7.62;100.00;102296.53;5020709;28;56583;-80
2023/02/16 07:13:11;;;;;;;;;29.75;26.75;;;;;7.59;100.00;102293.91;5038050;28;67625;-80
2023/02/16 07:15:37;;;;;;;;;38.75;27.50;;;;;7.66;100.00;102306.06;5038732;28;46202;-80
2023/02/16 07:18:02;;;;;;;;;52.00;36.00;;;;;7.70;100.00;102306.09;5020970;28;45550;-80
2023/02/16 07:20:28;;;;;;;;;44.25;34.50;;;;;7.73;100.00;102306.13;5038780;28;45374;-80
2023/02/16 07:22:53;;;;;;;;;35.75;31.00;;;;;7.79;100.00;102312.22;5019988;28;66436;-80
2023/02/16 07:25:18;;;;;;;;;37.25;31.00;;;;;7.82;100.00;102307.06;5038259;28;54039;-80
2023/02/16 07:27:44;;;;;;;;;34.25;28.00;;;;;7.93;100.00;102315.78;5038645;28;45344;-80
2023/02/16 07:30:10;;;;;;;;;48.50;35.25;;;;;7.98;100.00;102311.50;5020382;28;45442;-80
2023/02/16 07:32:36;;;;;;;;;47.25;34.50;;;;;8.09;100.00;102321.94;5020027;28;45486;-80
2023/02/16 07:35:01;;;;;;;;;50.00;40.50;;;;;8.18;100.00;102313.38;5038061;28;46129;-80
2023/02/16 07:37:26;;;;;;;;;39.50;33.75;;;;;8.27;100.00;102316.88;5037524;28;62473;-80
2023/02/16 07:39:52;;;;;;;;;39.00;31.25;;;;;8.38;100.00;102316.09;5037677;28;57366;-80
2023/02/16 07:42:18;;;;;;;;;39.00;33.75;;;;;8.44;100.00;102316.16;5038046;28;45315;-80
2023/02/16 07:44:43;;;;;;;;;28.50;27.00;;;;;8.50;100.00;102309.25;5037881;28;45488;-80
2023/02/16 07:47:09;;;;;;;;;39.25;29.00;;;;;8.53;100.00;102309.25;5008464;28;54072;-82
2023/02/16 07:49:34;;;;;;;;;40.50;30.75;;;;;8.57;100.00;102304.09;5024148;28;45543;-82
2023/02/16 07:51:59;;;;;;;;;48.75;35.25;;;;;8.62;100.00;102303.25;5019401;28;62319;-82
2023/02/16 07:54:25;;;;;;;;;34.00;27.25;;;;;8.67;100.00;102311.94;5035617;28;70093;-81
2023/02/16 07:56:50;;;;;;;;;36.25;26.00;;;;;8.79;100.00;102323.22;5019716;28;45367;-82
2023/02/16 07:59:16;;;;;;;;;37.00;25.00;;;;;8.82;100.00;102323.22;5037043;28;58109;-81
2023/02/16 08:01:41;;;;;;;;;32.00;27.75;;;;;8.90;100.00;102324.13;5019412;28;45457;-82
2023/02/16 08:04:07;;;;;;;;;36.25;30.75;;;;;8.96;100.00;102320.69;5038069;28;45474;-83
2023/02/16 08:06:34;;;;;;;;;36.00;24.00;;;;;9.06;100.00;102333.72;5004222;28;45518;-83
2023/02/16 08:08:59;;;;;;;;;40.00;31.75;;;;;9.11;100.00;102326.78;4999611;28;45419;-82
2023/02/16 08:11:24;;;;;;;;;43.00;31.50;;;;;9.11;100.00;102318.97;4998915;28;60988;-84
2023/02/16 08:13:50;;;;;;;;;36.75;29.75;;;;;9.26;100.00;102333.75;5018414;28;66720;-84
2023/02/16 08:16:20;;;;;;;;;42.50;27.25;;;;;9.29;100.00;102333.75;5046525;28;45715;-84
2023/02/16 08:18:45;;;;;;;;;34.00;30.00;;;;;9.27;100.00;102317.28;5019156;28;45451;-84
2023/02/16 08:21:13;;;;;;;;;33.75;27.50;;;;;9.33;100.00;102325.97;5033890;28;45355;-84
2023/02/16 08:23:46;;;;;;;;;39.50;27.00;;;;;9.37;100.00;102320.78;5039013;28;45459;-83
2023/02/16 08:26:13;;;;;;;;;33.50;25.75;;;;;9.44;100.00;102319.91;5056753;28;45381;-84
2023/02/16 08:28:44;;;;;;;;;36.75;27.50;;;;;9.46;100.00;102331.19;5038873;28;45334;-83
2023/02/16 08:31:10;;;;;;;;;41.00;33.25;;;;;9.47;100.00;102317.34;5056631;28;45470;-83
2023/02/16 08:33:36;;;;;;;;;33.75;24.50;;;;;9.54;100.00;102312.97;5057073;28;46378;-83
2023/02/16 08:36:03;;;;;;;;;30.50;26.25;;;;;9.54;100.00;102301.72;5038911;28;45406;-84
2023/02/16 08:38:28;;;;;;;;;38.00;28.25;;;;;9.60;100.00;102301.72;5056949;28;45333;-84
2023/02/16 08:40:54;;;;;;;;;32.75;26.75;;;;;9.68;100.00;102311.25;5060578;28;57931;-84
2023/02/16 08:43:21;;;;;;;;;32.50;25.25;;;;;9.78;100.00;102300.88;5029175;28;46188;-84
2023/02/16 08:45:46;;;;;;;;;31.25;27.50;;;;;9.91;100.00;102306.91;5005662;28;45846;-84
2023/02/16 08:48:12;;;;;;;;;42.00;35.00;;;;;10.04;100.00;102312.09;4989887;28;45433;-84
2023/02/16 08:50:54;;;;;;;;;34.25;26.00;;;;;10.14;100.00;102304.28;5031779;28;45335;-84
2023/02/16 08:53:21;;;;;;;;;33.25;26.75;;;;;10.30;100.00;102311.19;5001908;28;48417;-84
2023/02/16 08:55:52;;;;;;;;;34.00;23.50;;;;;10.45;100.00;102320.72;5015139;28;45482;-83
2023/02/16 08:58:18;;;;;;;;;28.75;25.50;;;;;10.51;100.00;102310.31;5010823;28;45562;-84
2023/02/16 09:00:43;;;;;;;;;30.00;24.50;;;;;10.65;100.00;102308.47;5029986;28;52799;-84
2023/02/16 09:03:09;;;;;;;;;39.75;30.25;;;;;10.68;100.00;102307.63;5018154;28;47279;-84
2023/02/16 09:05:34;;;;;;;;;32.00;26.25;;;;;10.65;100.00;102316.31;5018368;28;67412;-83
2023/02/16 09:07:59;;;;;;;;;30.75;27.50;;;;;10.69;100.00;102306.75;5017835;28;45306;-82
2023/02/16 09:10:25;;;;;;;;;38.75;31.75;;;;;10.79;100.00;102323.19;5018221;28;45470;-84
2023/02/16 09:12:50;;;;;;;;;31.00;25.75;;;;;10.88;100.00;102327.50;4999915;28;46299;-83
2023/02/16 09:15:15;;;;;;;;;25.50;23.75;;;;;10.97;100.00;102330.91;5015494;28;45414;-83
2023/02/16 09:17:41;;;;;;;;;35.00;24.00;;;;;11.09;100.00;102345.63;5037632;28;45409;-83
2023/02/16 09:20:08;;;;;;;;;30.50;22.00;;;;;11.14;100.00;102348.19;5028561;28;45595;-83
2023/02/16 09:22:33;;;;;;;;;32.00;22.75;;;;;11.05;100.00;102330.91;5021754;28;46149;-82
2023/02/16 09:24:59;;;;;;;;;34.75;26.25;;;;;11.16;100.00;102351.66;5004563;28;45471;-84
2023/02/16 09:27:24;;;;;;;;;36.00;24.00;;;;;11.29;100.00;102355.06;5034533;28;45403;-85
2023/02/16 09:29:50;;;;;;;;;37.00;27.50;;;;;11.27;100.00;102338.56;5030758;28;45744;-84
2023/02/16 09:32:16;;;;;;;;;39.25;28.25;;;;;11.26;100.00;102326.44;5024322;28;45708;-85
2023/02/16 09:34:43;;;;;;;;;37.50;30.00;;;;;11.38;100.00;102353.25;5033372;28;46623;-84
2023/02/16 09:37:09;;;;;;;;;39.75;28.25;;;;;11.36;100.00;102333.31;5033735;28;45700;-85
2023/02/16 09:39:35;;;;;;;;;34.00;27.50;;;;;11.38;100.00;102314.16;5017654;28;45396;-83
2023/02/16 09:42:14;;;;;;;;;30.25;24.75;;;;;11.51;100.00;102338.41;5021036;28;45362;-83
2023/02/16 09:44:57;;;;;;;;;37.25;26.75;;;;;11.58;100.00;102336.63;5015429;28;45573;-84
2023/02/16 09:47:29;;;;;;;;;35.50;22.50;;;;;11.72;100.00;102353.03;5033390;28;45428;-84
2023/02/16 09:49:58;;;;;;;;;36.25;27.75;;;;;11.76;100.00;102336.47;5009292;28;46239;-84
2023/02/16 09:52:36;;;;;;;;;34.25;27.75;;;;;11.96;100.00;102348.50;5020988;28;46135;-83
2023/02/16 09:55:15;;;;;;;;;27.75;24.50;;;;;11.99;100.00;102332.81;5011223;28;45856;-83
2023/02/16 09:58:00;;;;;;;;;39.75;30.25;;;;;12.20;100.00;102361.34;5017102;28;45758;-84
2023/02/16 10:00:31;;;;;;;;;32.00;25.25;;;;;12.34;100.00;102363.81;5014987;28;45600;-83
2023/02/16 10:03:33;;;;;;;;;31.00;23.25;;;;;12.43;100.00;102360.25;5024422;28;46437;-82
2023/02/16 10:06:25;;;;;;;;;29.25;25.00;;;;;12.47;100.00;102359.31;5020868;28;45569;-82
2023/02/16 10:08:54;;;;;;;;;31.25;22.25;;;;;12.47;100.00;102341.03;5026584;28;45465;-83
2023/02/16 10:11:47;;;;;;;;;29.50;25.00;;;;;12.53;100.00;102340.97;5013972;28;45557;-83
2023/02/16 10:14:31;;;;;;;;;35.75;27.50;;;;;12.70;100.00;102350.34;5017829;28;46733;-83
2023/02/16 10:17:05;;;;;;;;;30.00;24.00;;;;;12.73;100.00;102364.25;5032854;28;45805;-83
2023/02/16 10:20:12;;;;;;;;;28.25;22.50;;;;;12.70;100.00;102368.63;5029321;28;45480;-83
2023/02/16 10:22:46;;;;;;;;;33.00;22.50;;;;;12.70;100.00;102359.06;4962037;28;45764;-82
2023/02/16 10:25:22;;;;;;;;;26.75;21.50;;;;;12.72;100.00;102362.53;4962753;28;45847;-83
2023/02/16 10:27:53;;;;;;;;;21.00;17.25;;;;;12.75;100.00;102361.63;4943249;28;46041;-83
2023/02/16 10:30:21;;;;;;;;;28.50;14.25;;;;;12.77;100.00;102358.09;4984181;28;45420;-82
2023/02/16 10:32:52;;;;;;;;;30.75;19.25;;;;;12.78;100.00;102366.81;4950518;28;45837;-83
2023/02/16 10:35:22;;;;;;;;;33.25;23.00;;;;;12.70;100.00;102358.19;4966159;28;47128;-83
2023/02/16 10:38:12;;;;;;;;;27.00;21.25;;;;;12.63;100.00;102351.31;4945282;28;45676;-83
2023/02/16 10:41:02;;;;;;;;;15.00;13.75;;;;;12.65;100.00;102365.19;4939916;28;45413;-83
2023/02/16 10:43:50;;;;;;;;;25.50;21.25;;;;;12.64;100.00;102369.56;4953256;28;45488;-83
2023/02/16 10:46:31;;;;;;;;;26.50;19.25;;;;;12.74;100.00;102372.94;4945079;28;46400;-83
2023/02/16 10:48:58;;;;;;;;;30.00;23.75;;;;;12.88;100.00;102359.72;4954553;28;46222;-83
2023/02/16 10:51:27;;;;;;;;;25.00;19.25;;;;;12.99;100.00;102352.59;4969816;28;45397;-83
2023/02/16 10:53:58;;;;;;;;;21.75;19.50;;;;;13.08;100.00;102365.56;4941585;28;45374;-83
2023/02/16 10:56:58;;;;;;;;;17.25;15.50;;;;;13.23;100.00;102367.09;4979422;28;46411;-85
2023/02/16 10:59:23;;;;;;;;;20.50;17.75;;;;;13.48;100.00;102370.25;5017871;28;45729;-86
2023/02/16 11:01:52;;;;;;;;;25.67;17.33;;;;;13.73;100.00;102375.09;5027019;28;45311;-85
2023/02/16 11:04:35;;;;;;;;;20.25;18.00;;;;;14.02;100.00;102379.88;5041589;28;45505;-85
2023/02/16 11:07:05;;;;;;;;;18.00;17.50;;;;;14.28;100.00;102371.53;5015904;28;47063;-84
2023/02/16 11:09:31;;;;;;;;;25.75;15.25;;;;;14.60;100.00;102372.72;5033287;28;45997;-85
2023/02/16 11:11:57;;;;;;;;;19.00;14.25;;;;;14.85;100.00;102364.34;5001467;28;45563;-82
2023/02/16 11:14:25;;;;;;;;;19.75;15.75;;;;;14.97;100.00;102340.50;5010768;28;45618;-82
2023/02/16 11:17:11;;;;;;;;;17.00;7.00;;;;;15.22;100.00;102353.91;5016233;28;46389;-81
2023/02/16 11:19:38;;;;;;;;;18.00;13.00;;;;;15.36;100.00;102337.88;5000593;28;45611;-81
2023/02/16 11:22:04;;;;;;;;;21.25;15.00;;;;;15.67;100.00;102343.25;5029837;28;45425;-80
2023/02/16 11:24:36;;;;;;;;;19.00;13.75;;;;;15.97;100.00;102340.78;5015448;28;45531;-81
2023/02/16 11:27:14;;;;;;;;;20.75;14.25;;;;;16.28;100.00;102339.94;5013452;28;47554;-81
2023/02/16 11:29:40;;;;;;;;;15.50;13.50;;;;;16.46;100.00;102351.72;5034876;28;45887;-82
2023/02/16 11:32:10;;;;;;;;;19.00;14.00;;;;;16.52;100.00;102348.06;5037366;28;45398;-81
2023/02/16 11:34:41;;;;;;;;;20.75;15.50;;;;;16.55;100.00;102337.47;5018975;28;45269;-81
2023/02/16 11:37:27;;;;;;;;;15.75;11.00;;;;;16.68;100.00;102337.94;5019876;28;46646;-81
2023/02/16 11:40:25;;;;;;;;;17.00;14.25;;;;;17.50;100.00;102334.56;5021655;28;45881;-81
2023/02/16 11:42:52;;;;;;;;;14.25;12.00;;;;;18.74;100.00;102332.00;5015272;28;45337;-81
2023/02/16 11:45:35;;;;;;;;;19.00;16.50;;;;;19.39;99.62;102332.16;5017586;28;45561;-81
2023/02/16 11:48:13;;;;;;;;;19.25;15.25;;;;;20.27;96.66;102329.28;5036717;28;46399;-82
2023/02/16 11:50:54;;;;;;;;;17.25;13.25;;;;;20.91;94.63;102321.97;5036778;28;45486;-81
2023/02/16 11:53:25;;;;;;;;;13.50;11.75;;;;;20.95;91.23;102322.69;5018347;28;45467;-83
2023/02/16 11:56:11;;;;;;;;;12.75;12.50;;;;;20.64;90.00;102317.06;5020223;28;45489;-84
2023/02/16 11:58:37;;;;;;;;;18.50;14.00;;;;;20.79;88.63;102304.06;5037241;28;45593;-83
2023/02/16 12:01:25;;;;;;;;;15.75;10.75;;;;;21.37;87.67;102314.47;5033519;28;45831;-84
2023/02/16 12:04:28;;;;;;;;;21.00;10.50;;;;;21.77;86.28;102309.84;5004214;28;45686;-84